Terminal Aerodrome Forecast
Issued by NWS

Home | Current Version | Previous Version | Text Only | Print | Product List | Glossary On
Versions: 1 2 3 4 5 6 7 8 9 10
000
FTUS42 TJSJ 291100
TAFKPK
TAF
TKPK 291138Z 2912/3012 08010KT P6SM SCT018 SCT030
     FM291500 08015KT P6SM VCSH SCT018 SCT025 SCT045
     FM292300 07012KT P6SM FEW020 FEW030
      AMD NOT SKED 3002/3011=

USA.gov is the U.S. government's official web portal to all federal, state and local government web resources and services.